MMX weather

Malmö Sturup Airport
Malmö, Skåne län, Sweden

Public forecast

Using degrees Celsius for public forecast. Weather courtesy of forecast.io.

METAR (pilot weather report)

Retrieved 2019/04/25 11:20 UTC (3 minutes ago):

ESMS 251120Z 14005KT CAVOK 19/11 Q1011

TAF (pilot weather forecast)

Retrieved 2019/04/25 06:34 UTC (5 hours ago):

TAF ESMS 250456Z 2506/2606 13008KT 9999 SCT030